Time;durP1;ratioP1;P1;durP2;ratioP2;P2;SDS_P1;SDS_P2;PMS_P1;PMS_P2;Temp;Humidity;BMP_temperature;BMP_pressure;BME280_temperature;BME280_humidity;BME280_pressure;Samples;Min_cycle;Max_cycle;Signal;HPM_P1;HPM_P2
2022/01/31 00:02:09;;;;;;;12.48;2.45;;;;;;;;;;5096091;28;20077;-59
2022/01/31 00:04:35;;;;;;;10.45;2.88;;;;;;;;;;5114644;28;20424;-58
2022/01/31 00:07:03;;;;;;;8.38;2.63;;;;;;;;;;5114780;28;20107;-60
2022/01/31 00:09:29;;;;;;;12.40;2.88;;;;;;;;;;5114483;28;20714;-61
2022/01/31 00:12:05;;;;;;;7.53;2.53;;;;;;;;;;5095964;28;20020;-56
2022/01/31 00:14:46;;;;;;;9.68;2.17;;;;;;;;;;5092955;28;20028;-62
2022/01/31 00:17:12;;;;;;;8.68;2.45;;;;;;;;;;5092918;28;20028;-57
2022/01/31 00:19:39;;;;;;;8.27;2.60;;;;;;;;;;5093959;28;20024;-66
2022/01/31 00:22:06;;;;;;;7.03;2.63;;;;;;;;;;5093933;28;20375;-57
2022/01/31 00:24:33;;;;;;;8.43;2.58;;;;;;;;;;5113464;28;20023;-58
2022/01/31 00:26:59;;;;;;;9.50;2.70;;;;;;;;;;5114265;28;20097;-57
2022/01/31 00:29:25;;;;;;;6.53;2.40;;;;;;;;;;5114309;28;20031;-57
2022/01/31 00:31:51;;;;;;;8.38;2.78;;;;;;;;;;5113876;28;20036;-56
2022/01/31 00:34:17;;;;;;;6.95;2.30;;;;;;;;;;5113805;28;20024;-58
2022/01/31 00:36:43;;;;;;;10.60;2.63;;;;;;;;;;5114140;28;20080;-58
2022/01/31 00:39:09;;;;;;;7.85;2.40;;;;;;;;;;5101938;28;20020;-63
2022/01/31 00:41:36;;;;;;;11.90;2.80;;;;;;;;;;5122152;27;20038;-61
2022/01/31 00:44:14;;;;;;;9.98;3.25;;;;;;;;;;5095699;28;20540;-56
2022/01/31 00:46:44;;;;;;;5.70;2.05;;;;;;;;;;5114306;28;20043;-63
2022/01/31 00:49:17;;;;;;;9.93;2.47;;;;;;;;;;5114079;28;20047;-58
2022/01/31 00:51:43;;;;;;;7.32;2.40;;;;;;;;;;5113746;28;20028;-58
2022/01/31 00:54:09;;;;;;;11.32;2.42;;;;;;;;;;5113434;28;20043;-58
2022/01/31 00:56:35;;;;;;;15.23;2.58;;;;;;;;;;5104544;28;20027;-58
2022/01/31 00:59:01;;;;;;;17.73;3.00;;;;;;;;;;5122032;27;20073;-59
2022/01/31 01:01:27;;;;;;;17.42;2.58;;;;;;;;;;5113306;28;20027;-57
2022/01/31 01:03:53;;;;;;;25.48;2.72;;;;;;;;;;5113768;28;20030;-60
2022/01/31 01:06:18;;;;;;;20.55;2.80;;;;;;;;;;5113627;28;20027;-59
2022/01/31 01:08:44;;;;;;;11.48;2.10;;;;;;;;;;5113188;28;20111;-58
2022/01/31 01:11:10;;;;;;;13.93;2.40;;;;;;;;;;5100758;28;20568;-60
2022/01/31 01:13:36;;;;;;;11.18;2.47;;;;;;;;;;5092931;28;20020;-57
2022/01/31 01:16:02;;;;;;;10.07;2.42;;;;;;;;;;5092983;28;20040;-60
2022/01/31 01:18:28;;;;;;;9.95;2.22;;;;;;;;;;5095051;28;20027;-60
2022/01/31 01:20:54;;;;;;;5.97;1.60;;;;;;;;;;5113020;28;20023;-61
2022/01/31 01:23:20;;;;;;;10.20;2.03;;;;;;;;;;5113431;28;20033;-56
2022/01/31 01:25:47;;;;;;;9.13;1.77;;;;;;;;;;5113016;28;20437;-57
2022/01/31 01:28:13;;;;;;;7.03;2.20;;;;;;;;;;5112623;28;20024;-56
2022/01/31 01:30:39;;;;;;;9.18;2.00;;;;;;;;;;5122912;27;20028;-61
2022/01/31 01:33:10;;;;;;;11.52;1.17;;;;;;;;;;5133458;27;20016;-56
2022/01/31 01:35:38;;;;;;;5.63;1.48;;;;;;;;;;5133367;27;20074;-58
2022/01/31 01:38:08;;;;;;;10.65;1.85;;;;;;;;;;5124059;27;20047;-57
2022/01/31 01:40:35;;;;;;;5.32;1.70;;;;;;;;;;5092760;28;20037;-57
2022/01/31 01:43:01;;;;;;;10.23;1.65;;;;;;;;;;5092279;28;20020;-63
2022/01/31 01:45:28;;;;;;;6.30;1.70;;;;;;;;;;5092996;28;20075;-58
2022/01/31 01:47:54;;;;;;;5.85;1.58;;;;;;;;;;5092420;28;20056;-59
2022/01/31 01:50:20;;;;;;;7.40;1.70;;;;;;;;;;5092320;28;20063;-58
2022/01/31 01:52:46;;;;;;;8.05;1.90;;;;;;;;;;5092201;28;20051;-57
2022/01/31 01:55:12;;;;;;;8.55;1.95;;;;;;;;;;5108262;28;20058;-57
2022/01/31 01:57:39;;;;;;;6.10;1.65;;;;;;;;;;5113298;28;20023;-60
2022/01/31 02:00:08;;;;;;;8.95;1.92;;;;;;;;;;5116447;28;20096;-56
2022/01/31 02:02:34;;;;;;;7.28;1.60;;;;;;;;;;5124374;28;20020;-58
2022/01/31 02:05:00;;;;;;;8.32;2.30;;;;;;;;;;5133361;28;20023;-55
2022/01/31 02:07:27;;;;;;;8.13;2.03;;;;;;;;;;5133242;28;20753;-58
2022/01/31 02:09:55;;;;;;;6.93;2.15;;;;;;;;;;5113306;28;20027;-61
2022/01/31 02:12:23;;;;;;;13.23;2.25;;;;;;;;;;5112565;28;20107;-56
2022/01/31 02:14:49;;;;;;;6.88;1.90;;;;;;;;;;5112264;28;20505;-55
2022/01/31 02:17:15;;;;;;;7.43;1.88;;;;;;;;;;5103890;28;20024;-58
2022/01/31 02:19:41;;;;;;;8.48;2.17;;;;;;;;;;5092069;28;20134;-58
2022/01/31 02:22:07;;;;;;;7.05;2.05;;;;;;;;;;5092208;28;20031;-59
2022/01/31 02:24:33;;;;;;;13.02;2.33;;;;;;;;;;5091831;28;20028;-64
2022/01/31 02:27:02;;;;;;;10.07;2.55;;;;;;;;;;5092077;28;20039;-59
2022/01/31 02:29:28;;;;;;;9.43;2.47;;;;;;;;;;5092505;28;20016;-65
2022/01/31 02:31:54;;;;;;;7.72;2.35;;;;;;;;;;5104144;28;20035;-60
2022/01/31 02:34:20;;;;;;;8.40;1.98;;;;;;;;;;5116933;28;20027;-57
2022/01/31 02:36:46;;;;;;;8.60;2.10;;;;;;;;;;5112559;28;20118;-58
2022/01/31 02:39:12;;;;;;;8.63;2.40;;;;;;;;;;5112372;28;20034;-58
2022/01/31 02:41:41;;;;;;;6.35;1.80;;;;;;;;;;5112176;28;20486;-61
2022/01/31 02:44:14;;;;;;;7.38;1.55;;;;;;;;;;5112456;28;20089;-58
2022/01/31 02:46:40;;;;;;;;;;;;;;;;;;5111991;28;20051;-58
2022/01/31 02:49:06;;;;;;;7.22;1.90;;;;;;;;;;5126151;28;20266;-60
2022/01/31 02:51:33;;;;;;;6.72;2.15;;;;;;;;;;5114688;28;20038;-60
2022/01/31 02:53:59;;;;;;;5.40;1.75;;;;;;;;;;5112329;28;20126;-59
2022/01/31 02:56:25;;;;;;;8.88;2.33;;;;;;;;;;5105896;28;20111;-58
2022/01/31 02:58:51;;;;;;;7.15;1.80;;;;;;;;;;5112315;28;20028;-62
2022/01/31 03:01:17;;;;;;;7.15;1.80;;;;;;;;;;5112109;28;20036;-59
2022/01/31 03:03:43;;;;;;;11.02;1.90;;;;;;;;;;5117296;27;20596;-59
2022/01/31 03:06:09;;;;;;;10.25;2.20;;;;;;;;;;5130575;27;20046;-62
2022/01/31 03:08:35;;;;;;;7.28;1.88;;;;;;;;;;5115909;28;20566;-58
2022/01/31 03:11:01;;;;;;;8.77;2.00;;;;;;;;;;5104721;28;20123;-60
2022/01/31 03:13:27;;;;;;;6.85;1.73;;;;;;;;;;5095114;28;20438;-59
2022/01/31 03:15:53;;;;;;;8.45;1.73;;;;;;;;;;5097010;28;20040;-60
2022/01/31 03:18:19;;;;;;;10.27;2.13;;;;;;;;;;5115736;28;20019;-58
2022/01/31 03:20:45;;;;;;;5.57;1.90;;;;;;;;;;5115624;28;20102;-62
2022/01/31 03:23:11;;;;;;;10.55;2.03;;;;;;;;;;5115840;28;20032;-58
2022/01/31 03:25:37;;;;;;;3.78;1.30;;;;;;;;;;5115709;28;20035;-58
2022/01/31 03:28:03;;;;;;;4.28;1.63;;;;;;;;;;5115566;28;20229;-61
2022/01/31 03:30:29;;;;;;;7.63;1.73;;;;;;;;;;5115524;28;20118;-56
2022/01/31 03:32:55;;;;;;;11.95;1.98;;;;;;;;;;5115273;28;20103;-62
2022/01/31 03:35:23;;;;;;;9.38;1.77;;;;;;;;;;5121833;27;20152;-56
2022/01/31 03:37:49;;;;;;;9.50;2.17;;;;;;;;;;5127208;27;20031;-57
2022/01/31 03:40:15;;;;;;;7.07;1.70;;;;;;;;;;5136162;27;20040;-63
2022/01/31 03:42:41;;;;;;;9.23;1.95;;;;;;;;;;5135640;27;20462;-63
2022/01/31 03:45:09;;;;;;;8.85;2.13;;;;;;;;;;5135476;27;20067;-61
2022/01/31 03:47:36;;;;;;;6.15;1.85;;;;;;;;;;5135577;27;20416;-57
2022/01/31 03:50:03;;;;;;;5.93;1.58;;;;;;;;;;5117660;27;20023;-60
2022/01/31 03:52:29;;;;;;;7.47;2.03;;;;;;;;;;5135363;27;20073;-56
2022/01/31 03:54:56;;;;;;;7.45;1.85;;;;;;;;;;5129299;27;20087;-62
2022/01/31 03:57:22;;;;;;;9.85;2.03;;;;;;;;;;5097200;28;20017;-56
2022/01/31 03:59:48;;;;;;;4.15;1.25;;;;;;;;;;5094283;28;20065;-62
2022/01/31 04:02:14;;;;;;;5.18;1.80;;;;;;;;;;5094524;28;20036;-65
2022/01/31 04:04:40;;;;;;;6.00;1.83;;;;;;;;;;5094319;28;20078;-58
2022/01/31 04:07:06;;;;;;;8.60;1.88;;;;;;;;;;5118324;27;20020;-64
2022/01/31 04:09:32;;;;;;;8.35;1.88;;;;;;;;;;5132415;27;20081;-58
2022/01/31 04:11:58;;;;;;;9.45;2.00;;;;;;;;;;5135106;27;20390;-65
2022/01/31 04:14:26;;;;;;;6.95;1.98;;;;;;;;;;5134737;27;20083;-57
2022/01/31 04:16:54;;;;;;;5.90;2.00;;;;;;;;;;5129927;27;20050;-56
2022/01/31 04:19:20;;;;;;;6.75;1.70;;;;;;;;;;5114618;28;20016;-55
2022/01/31 04:21:47;;;;;;;6.15;2.15;;;;;;;;;;5114099;28;20024;-59
2022/01/31 04:24:19;;;;;;;7.90;1.77;;;;;;;;;;5113987;28;20030;-56
2022/01/31 04:26:55;;;;;;;12.27;2.28;;;;;;;;;;5114576;28;20455;-64
2022/01/31 04:29:21;;;;;;;8.45;1.73;;;;;;;;;;5114075;28;20379;-59
2022/01/31 04:31:51;;;;;;;9.82;2.22;;;;;;;;;;5114000;28;20035;-60
2022/01/31 04:34:17;;;;;;;9.57;2.20;;;;;;;;;;5114067;28;20028;-56
2022/01/31 04:36:43;;;;;;;11.10;2.10;;;;;;;;;;5113996;28;20023;-58
2022/01/31 04:39:15;;;;;;;8.80;2.35;;;;;;;;;;5113522;28;20038;-56
2022/01/31 04:41:41;;;;;;;15.32;2.65;;;;;;;;;;5105949;27;20390;-58
2022/01/31 04:44:08;;;;;;;5.60;1.92;;;;;;;;;;5134669;27;20467;-60
2022/01/31 04:46:35;;;;;;;6.72;2.10;;;;;;;;;;5134468;27;20050;-58
2022/01/31 04:49:01;;;;;;;9.32;1.80;;;;;;;;;;5134607;27;20011;-57
2022/01/31 04:51:27;;;;;;;9.63;1.77;;;;;;;;;;5115834;27;20027;-61
2022/01/31 04:53:53;;;;;;;11.27;2.13;;;;;;;;;;5134095;27;20736;-70
2022/01/31 04:56:19;;;;;;;9.40;1.63;;;;;;;;;;5119530;27;20043;-58
2022/01/31 04:58:45;;;;;;;9.68;2.05;;;;;;;;;;5114677;27;20612;-58
2022/01/31 05:01:11;;;;;;;9.52;2.03;;;;;;;;;;5113423;28;20027;-55
2022/01/31 05:03:37;;;;;;;9.50;2.25;;;;;;;;;;5113463;28;20378;-56
2022/01/31 05:06:03;;;;;;;11.55;2.25;;;;;;;;;;5113788;28;20023;-57
2022/01/31 05:08:30;;;;;;;8.98;2.08;;;;;;;;;;5113332;28;20031;-58
2022/01/31 05:10:56;;;;;;;8.43;1.92;;;;;;;;;;5116294;27;20098;-58
2022/01/31 05:13:22;;;;;;;8.13;2.15;;;;;;;;;;5133906;27;20389;-62
2022/01/31 05:15:53;;;;;;;12.50;1.83;;;;;;;;;;5133513;27;20065;-58
2022/01/31 05:18:19;;;;;;;9.23;2.20;;;;;;;;;;5116336;27;20506;-61
2022/01/31 05:20:45;;;;;;;7.78;1.60;;;;;;;;;;5113013;28;20110;-55
2022/01/31 05:23:11;;;;;;;9.60;1.85;;;;;;;;;;5113194;28;20023;-56
2022/01/31 05:25:37;;;;;;;13.82;2.08;;;;;;;;;;5112268;28;20031;-57
2022/01/31 05:28:03;;;;;;;19.08;2.35;;;;;;;;;;5113249;28;20028;-58
2022/01/31 05:30:29;;;;;;;13.88;2.33;;;;;;;;;;5094700;28;20077;-56
2022/01/31 05:32:55;;;;;;;7.45;1.98;;;;;;;;;;5112763;28;20031;-57
2022/01/31 05:35:21;;;;;;;8.65;2.20;;;;;;;;;;5112491;28;20027;-55
2022/01/31 05:37:47;;;;;;;15.82;2.28;;;;;;;;;;5112893;28;20047;-58
2022/01/31 05:40:13;;;;;;;10.88;1.75;;;;;;;;;;5112896;28;20023;-58
2022/01/31 05:42:39;;;;;;;10.73;2.65;;;;;;;;;;5110113;28;20024;-58
2022/01/31 05:45:09;;;;;;;9.18;2.15;;;;;;;;;;5119713;27;20478;-58
2022/01/31 05:47:36;;;;;;;10.77;2.10;;;;;;;;;;5133362;27;20477;-66
2022/01/31 05:50:02;;;;;;;9.35;2.40;;;;;;;;;;5133237;27;20027;-60
2022/01/31 05:52:28;;;;;;;9.75;2.35;;;;;;;;;;5133291;27;20032;-63
2022/01/31 05:54:54;;;;;;;11.48;2.83;;;;;;;;;;5127445;27;20058;-58
2022/01/31 05:57:20;;;;;;;8.73;2.28;;;;;;;;;;5097296;28;20051;-57
2022/01/31 05:59:46;;;;;;;8.50;2.03;;;;;;;;;;5108456;28;20493;-57
2022/01/31 06:02:12;;;;;;;7.07;1.85;;;;;;;;;;5087354;28;20035;-57
2022/01/31 06:04:38;;;;;;;5.57;2.08;;;;;;;;;;5112085;28;20047;-60
2022/01/31 06:07:05;;;;;;;10.23;2.05;;;;;;;;;;5112049;28;20168;-58
2022/01/31 06:09:32;;;;;;;9.65;2.60;;;;;;;;;;5112237;28;20020;-58
2022/01/31 06:12:01;;;;;;;10.50;2.25;;;;;;;;;;5093926;28;20134;-61
2022/01/31 06:14:27;;;;;;;8.77;2.25;;;;;;;;;;5111882;28;20036;-59
2022/01/31 06:16:53;;;;;;;11.77;2.63;;;;;;;;;;5108978;28;20479;-58
2022/01/31 06:19:19;;;;;;;12.43;2.78;;;;;;;;;;5111936;28;20024;-56
2022/01/31 06:21:45;;;;;;;10.70;2.45;;;;;;;;;;5111929;28;20398;-58
2022/01/31 06:24:13;;;;;;;7.95;2.10;;;;;;;;;;5112220;28;20019;-57
2022/01/31 06:26:40;;;;;;;21.73;3.15;;;;;;;;;;5112252;27;20030;-57
2022/01/31 06:29:06;;;;;;;17.67;2.95;;;;;;;;;;5111257;28;20055;-57
2022/01/31 06:31:32;;;;;;;31.23;3.40;;;;;;;;;;5112348;28;20051;-58
2022/01/31 06:33:59;;;;;;;41.67;3.35;;;;;;;;;;5112079;28;20024;-57
2022/01/31 06:36:25;;;;;;;60.25;4.05;;;;;;;;;;5111899;28;20035;-54
2022/01/31 06:38:51;;;;;;;40.05;4.20;;;;;;;;;;5112972;28;20091;-55
2022/01/31 06:41:18;;;;;;;19.67;3.80;;;;;;;;;;5116038;28;20110;-51
2022/01/31 06:43:45;;;;;;;24.20;3.70;;;;;;;;;;5097937;28;20522;-51
2022/01/31 06:46:11;;;;;;;20.17;3.25;;;;;;;;;;5094769;27;20036;-49
2022/01/31 06:48:37;;;;;;;24.73;3.03;;;;;;;;;;5109453;28;20038;-58
2022/01/31 06:51:03;;;;;;;19.05;3.28;;;;;;;;;;5114403;28;20023;-53
2022/01/31 06:53:29;;;;;;;17.27;3.22;;;;;;;;;;5115526;28;20511;-55
2022/01/31 06:55:55;;;;;;;24.35;2.90;;;;;;;;;;5095853;28;20096;-51
2022/01/31 06:58:22;;;;;;;28.98;3.08;;;;;;;;;;5095935;28;20121;-54
2022/01/31 07:00:48;;;;;;;18.05;3.13;;;;;;;;;;5094958;28;20063;-63
2022/01/31 07:03:14;;;;;;;20.13;2.60;;;;;;;;;;5094958;28;20020;-63
2022/01/31 07:05:41;;;;;;;16.55;3.00;;;;;;;;;;5085699;28;20488;-62
2022/01/31 07:08:07;;;;;;;17.35;3.20;;;;;;;;;;5095526;28;20107;-63
2022/01/31 07:10:33;;;;;;;23.13;3.33;;;;;;;;;;5095060;28;20455;-60
2022/01/31 07:13:02;;;;;;;17.27;2.85;;;;;;;;;;5095474;28;20127;-60
2022/01/31 07:15:28;;;;;;;9.82;2.65;;;;;;;;;;5095148;28;20032;-62
2022/01/31 07:17:54;;;;;;;12.38;2.85;;;;;;;;;;5081412;28;20024;-62
2022/01/31 07:20:39;;;;;;;9.75;2.72;;;;;;;;;;5074832;28;20499;-62
2022/01/31 07:23:13;;;;;;;12.77;2.65;;;;;;;;;;5081862;28;20352;-60
2022/01/31 07:25:39;;;;;;;14.10;3.13;;;;;;;;;;5094999;28;20028;-59
2022/01/31 07:28:08;;;;;;;21.38;3.30;;;;;;;;;;5094946;28;20456;-60
2022/01/31 07:30:34;;;;;;;19.52;3.65;;;;;;;;;;5094841;28;20032;-61
2022/01/31 07:33:01;;;;;;;14.57;2.53;;;;;;;;;;5094571;28;20396;-60
2022/01/31 07:35:27;;;;;;;16.35;2.90;;;;;;;;;;5094339;28;20036;-61
2022/01/31 07:37:53;;;;;;;14.25;3.08;;;;;;;;;;5076582;28;20054;-62
2022/01/31 07:40:19;;;;;;;18.52;3.70;;;;;;;;;;5094975;28;20111;-60
2022/01/31 07:42:45;;;;;;;14.88;3.10;;;;;;;;;;5094265;28;20683;-61
2022/01/31 07:45:11;;;;;;;19.25;3.30;;;;;;;;;;5094656;28;20024;-60
2022/01/31 07:47:38;;;;;;;13.93;3.20;;;;;;;;;;5094227;28;20016;-60
2022/01/31 07:50:04;;;;;;;15.52;3.17;;;;;;;;;;5094420;28;20021;-60
2022/01/31 07:52:31;;;;;;;15.18;3.58;;;;;;;;;;5084702;28;20379;-60
2022/01/31 07:54:57;;;;;;;14.63;3.40;;;;;;;;;;5104673;28;20035;-61
2022/01/31 07:57:25;;;;;;;15.95;3.05;;;;;;;;;;5096253;28;20029;-61
2022/01/31 07:59:51;;;;;;;18.55;3.47;;;;;;;;;;5094406;28;20028;-62
2022/01/31 08:02:18;;;;;;;10.13;3.05;;;;;;;;;;5102101;28;20032;-66
2022/01/31 08:04:44;;;;;;;12.98;3.30;;;;;;;;;;5111527;28;20092;-60
2022/01/31 08:07:10;;;;;;;12.68;2.90;;;;;;;;;;5119507;27;20038;-59
2022/01/31 08:09:36;;;;;;;12.93;3.05;;;;;;;;;;5121491;27;20065;-60
2022/01/31 08:12:03;;;;;;;12.93;3.20;;;;;;;;;;5100809;28;20031;-62
2022/01/31 08:14:30;;;;;;;13.55;2.97;;;;;;;;;;5110988;28;20062;-57
2022/01/31 08:16:56;;;;;;;22.40;3.92;;;;;;;;;;5106986;28;20032;-56
2022/01/31 08:19:22;;;;;;;12.35;2.95;;;;;;;;;;5093546;28;20095;-61
2022/01/31 08:21:48;;;;;;;15.57;3.38;;;;;;;;;;5093194;28;20020;-58
2022/01/31 08:24:14;;;;;;;18.05;3.83;;;;;;;;;;5094020;28;20411;-53
2022/01/31 08:26:40;;;;;;;17.10;3.63;;;;;;;;;;5114040;28;20143;-56
2022/01/31 08:29:22;;;;;;;11.48;3.30;;;;;;;;;;5113822;28;20028;-57
2022/01/31 08:31:52;;;;;;;13.10;3.33;;;;;;;;;;5122847;27;20418;-58
2022/01/31 08:34:24;;;;;;;16.65;3.10;;;;;;;;;;5133075;27;20027;-58
2022/01/31 08:36:51;;;;;;;12.60;3.10;;;;;;;;;;5132537;27;20118;-55
2022/01/31 08:39:18;;;;;;;12.02;3.33;;;;;;;;;;5113648;28;20016;-50
2022/01/31 08:41:46;;;;;;;16.38;4.13;;;;;;;;;;5113205;28;20023;-56
2022/01/31 08:44:13;;;;;;;12.27;3.38;;;;;;;;;;5113464;28;20026;-55
2022/01/31 08:46:40;;;;;;;16.13;3.60;;;;;;;;;;5113849;28;20035;-58
2022/01/31 08:49:09;;;;;;;16.70;3.42;;;;;;;;;;5113373;28;20065;-56
2022/01/31 08:51:36;;;;;;;18.30;3.88;;;;;;;;;;5113181;28;20024;-59
2022/01/31 08:54:03;;;;;;;15.50;3.83;;;;;;;;;;5094780;28;20039;-57
2022/01/31 08:56:29;;;;;;;17.00;3.55;;;;;;;;;;5103038;28;20375;-55
2022/01/31 08:58:56;;;;;;;15.80;3.22;;;;;;;;;;5117180;27;20023;-59
2022/01/31 09:01:23;;;;;;;18.88;3.67;;;;;;;;;;5129253;27;20027;-56
2022/01/31 09:06:20;;;;;;;16.17;3.67;;;;;;;;;;5133565;27;20053;-59
2022/01/31 09:08:46;;;;;;;19.92;4.30;;;;;;;;;;5115028;27;20047;-57
2022/01/31 09:11:12;;;;;;;20.27;4.15;;;;;;;;;;5133239;27;20054;-57
2022/01/31 09:13:38;;;;;;;14.93;3.75;;;;;;;;;;5133261;27;20019;-62
2022/01/31 09:16:04;;;;;;;10.25;3.28;;;;;;;;;;5133663;27;20039;-53
2022/01/31 09:18:31;;;;;;;16.13;3.75;;;;;;;;;;5133599;27;20019;-59
2022/01/31 09:20:58;;;;;;;15.05;4.10;;;;;;;;;;5133263;27;20023;-55
2022/01/31 09:23:24;;;;;;;13.43;3.60;;;;;;;;;;5133261;27;20481;-56
2022/01/31 09:25:50;;;;;;;18.45;4.10;;;;;;;;;;5110434;28;20123;-58
2022/01/31 09:28:17;;;;;;;17.90;4.05;;;;;;;;;;5112700;28;20359;-55
2022/01/31 09:30:44;;;;;;;15.75;4.40;;;;;;;;;;5112608;28;20024;-53
2022/01/31 09:33:10;;;;;;;19.70;4.03;;;;;;;;;;5103368;27;20024;-55
2022/01/31 09:35:36;;;;;;;15.05;4.22;;;;;;;;;;5110222;27;20034;-57
2022/01/31 09:38:03;;;;;;;18.73;4.15;;;;;;;;;;5103224;28;20406;-60
2022/01/31 09:40:30;;;;;;;17.08;4.43;;;;;;;;;;5111863;27;20027;-52
2022/01/31 09:43:04;;;;;;;20.00;4.43;;;;;;;;;;5101420;28;20030;-56
2022/01/31 09:48:33;;;;;;;25.98;4.53;;;;;;;;;;5071831;28;20419;-54
2022/01/31 09:51:02;;;;;;;25.88;4.57;;;;;;;;;;5100050;28;20017;-56
2022/01/31 09:53:30;;;;;;;23.80;4.28;;;;;;;;;;5106110;28;20553;-54
2022/01/31 09:55:56;;;;;;;17.80;4.07;;;;;;;;;;5091669;28;20138;-56
2022/01/31 09:58:24;;;;;;;23.85;4.57;;;;;;;;;;5090538;28;20024;-54
2022/01/31 10:01:02;;;;;;;22.98;4.65;;;;;;;;;;5095244;28;20031;-55
2022/01/31 10:03:28;;;;;;;19.73;4.47;;;;;;;;;;5091028;28;20024;-57
2022/01/31 10:05:54;;;;;;;20.63;5.10;;;;;;;;;;5091941;28;20030;-56
2022/01/31 10:08:20;;;;;;;24.05;5.00;;;;;;;;;;5091542;28;20024;-54
2022/01/31 10:10:48;;;;;;;20.23;4.38;;;;;;;;;;5092609;28;20039;-55
2022/01/31 10:16:54;;;;;;;19.33;4.90;;;;;;;;;;4995073;28;20070;-55
2022/01/31 10:19:20;;;;;;;21.38;4.70;;;;;;;;;;5013977;28;20064;-57
2022/01/31 10:21:58;;;;;;;22.38;4.82;;;;;;;;;;5042477;28;20441;-55
2022/01/31 10:24:24;;;;;;;20.20;4.43;;;;;;;;;;5076068;28;20510;-54
2022/01/31 10:26:51;;;;;;;18.77;4.80;;;;;;;;;;5088227;28;20020;-54
2022/01/31 10:29:18;;;;;;;18.30;4.75;;;;;;;;;;5094937;28;20069;-55
2022/01/31 10:32:04;;;;;;;16.25;4.63;;;;;;;;;;5093949;28;20027;-55
2022/01/31 10:34:31;;;;;;;22.70;4.75;;;;;;;;;;5093840;28;20040;-52
2022/01/31 10:37:01;;;;;;;18.25;4.60;;;;;;;;;;5092595;28;20020;-53
2022/01/31 10:53:22;;;;;;;21.50;4.73;;;;;;;;;;5060037;28;20586;-51
2022/01/31 10:55:54;;;;;;;23.23;4.72;;;;;;;;;;5093612;28;20040;-57
2022/01/31 10:58:20;;;;;;;25.73;4.93;;;;;;;;;;5090662;28;20790;-55
2022/01/31 11:00:46;;;;;;;20.80;4.80;;;;;;;;;;5089049;28;20056;-52
2022/01/31 11:03:29;;;;;;;20.58;4.70;;;;;;;;;;5088139;28;20081;-54
2022/01/31 11:05:55;;;;;;;17.80;4.65;;;;;;;;;;5089697;27;20107;-53
2022/01/31 11:08:21;;;;;;;17.52;4.70;;;;;;;;;;5093786;28;20073;-54
2022/01/31 11:10:47;;;;;;;19.40;5.03;;;;;;;;;;5088173;28;20033;-54
2022/01/31 11:13:17;;;;;;;22.30;5.20;;;;;;;;;;5090200;28;20051;-54
2022/01/31 11:15:44;;;;;;;17.35;4.95;;;;;;;;;;5102581;28;20040;-53
2022/01/31 11:18:11;;;;;;;18.92;4.43;;;;;;;;;;5100182;28;20383;-55
2022/01/31 11:20:42;;;;;;;17.65;4.35;;;;;;;;;;5095207;28;20024;-55
2022/01/31 11:23:09;;;;;;;19.52;5.10;;;;;;;;;;5093837;28;20577;-53
2022/01/31 11:25:38;;;;;;;20.50;5.25;;;;;;;;;;5096484;27;20089;-54
2022/01/31 11:28:06;;;;;;;19.98;5.18;;;;;;;;;;5094409;28;20020;-56
2022/01/31 11:30:32;;;;;;;21.30;5.05;;;;;;;;;;5088744;28;20020;-54
2022/01/31 11:32:58;;;;;;;21.15;5.10;;;;;;;;;;5095807;28;20028;-54
2022/01/31 11:35:24;;;;;;;19.83;5.07;;;;;;;;;;5074408;28;20108;-56
2022/01/31 11:37:51;;;;;;;22.55;4.82;;;;;;;;;;5096882;27;20044;-57
2022/01/31 11:40:17;;;;;;;23.58;5.60;;;;;;;;;;5093846;28;20032;-54
2022/01/31 11:42:44;;;;;;;18.08;5.30;;;;;;;;;;5093001;28;20020;-52
2022/01/31 11:45:18;;;;;;;20.27;5.78;;;;;;;;;;5092842;28;20031;-54
2022/01/31 11:47:48;;;;;;;19.20;5.10;;;;;;;;;;5093177;28;20021;-55
2022/01/31 11:50:15;;;;;;;17.88;4.30;;;;;;;;;;5104481;28;20024;-60
2022/01/31 11:52:47;;;;;;;19.85;5.20;;;;;;;;;;5095329;28;20194;-55
2022/01/31 11:55:15;;;;;;;16.95;4.82;;;;;;;;;;5104098;27;20047;-56
2022/01/31 11:57:44;;;;;;;22.80;5.53;;;;;;;;;;5115485;27;20027;-54
2022/01/31 12:00:12;;;;;;;25.38;4.93;;;;;;;;;;5114066;28;20019;-55
2022/01/31 12:02:42;;;;;;;22.25;5.75;;;;;;;;;;5113458;28;20023;-56
2022/01/31 12:05:10;;;;;;;24.83;5.38;;;;;;;;;;5113571;28;20475;-54
2022/01/31 12:07:41;;;;;;;22.25;5.32;;;;;;;;;;5093281;28;20032;-57
2022/01/31 12:10:09;;;;;;;16.70;4.47;;;;;;;;;;5096845;28;20098;-52
2022/01/31 12:12:45;;;;;;;20.52;4.85;;;;;;;;;;5112678;28;20034;-56
2022/01/31 12:23:43;;;;;;;17.70;4.38;;;;;;;;;;5114602;28;20414;-55
2022/01/31 12:26:28;;;;;;;21.38;5.65;;;;;;;;;;5095609;28;20023;-55
2022/01/31 12:28:55;;;;;;;20.48;5.50;;;;;;;;;;5113622;28;20130;-57
2022/01/31 12:31:41;;;;;;;17.52;4.93;;;;;;;;;;5111628;28;20078;-55
2022/01/31 12:34:32;;;;;;;18.40;4.88;;;;;;;;;;5112646;28;20399;-56
2022/01/31 12:37:19;;;;;;;19.75;5.00;;;;;;;;;;5101768;28;20048;-55
2022/01/31 12:39:56;;;;;;;18.73;4.90;;;;;;;;;;5113518;28;20028;-54
2022/01/31 12:45:09;;;;;;;21.75;5.25;;;;;;;;;;5097605;27;20100;-59
2022/01/31 12:47:35;;;;;;;15.35;4.65;;;;;;;;;;5095380;28;20039;-62
2022/01/31 12:50:20;;;;;;;20.75;5.07;;;;;;;;;;5113675;28;20027;-57
2022/01/31 12:52:46;;;;;;;21.45;5.40;;;;;;;;;;5113514;28;20058;-56
2022/01/31 12:55:13;;;;;;;18.67;5.57;;;;;;;;;;5094837;28;20059;-58
2022/01/31 12:57:48;;;;;;;15.10;4.57;;;;;;;;;;5113616;28;20099;-64
2022/01/31 13:00:15;;;;;;;17.95;5.13;;;;;;;;;;5113535;28;20032;-56
2022/01/31 13:02:48;;;;;;;16.27;4.65;;;;;;;;;;5094610;28;20068;-57
2022/01/31 13:05:14;;;;;;;21.90;5.07;;;;;;;;;;5112472;28;20015;-54
2022/01/31 13:07:40;;;;;;;20.50;5.32;;;;;;;;;;5112427;28;20027;-55
2022/01/31 13:10:09;;;;;;;20.23;5.03;;;;;;;;;;5112230;28;20012;-57
2022/01/31 13:12:36;;;;;;;19.73;5.10;;;;;;;;;;5112240;28;20449;-55
2022/01/31 13:15:03;;;;;;;22.08;5.15;;;;;;;;;;5112117;28;20030;-59
2022/01/31 13:17:29;;;;;;;21.45;5.55;;;;;;;;;;5095642;28;20040;-60
2022/01/31 13:19:56;;;;;;;22.85;5.68;;;;;;;;;;5092431;28;20050;-56
2022/01/31 13:24:57;;;;;;;20.17;4.70;;;;;;;;;;5112978;28;20051;-56
2022/01/31 13:27:31;;;;;;;17.92;5.47;;;;;;;;;;5113043;28;20019;-56
2022/01/31 13:29:57;;;;;;;20.65;4.82;;;;;;;;;;5112974;28;20015;-59
2022/01/31 13:32:24;;;;;;;25.85;5.72;;;;;;;;;;5112371;28;20031;-59
2022/01/31 13:35:10;;;;;;;17.98;4.93;;;;;;;;;;5112914;28;20050;-58
2022/01/31 13:37:43;;;;;;;34.15;5.55;;;;;;;;;;5094964;28;20023;-56
2022/01/31 13:40:12;;;;;;;20.67;4.57;;;;;;;;;;5113016;28;20023;-56
2022/01/31 13:42:39;;;;;;;21.15;5.28;;;;;;;;;;5112685;28;20030;-58
2022/01/31 13:45:33;;;;;;;21.00;4.68;;;;;;;;;;5112944;28;20068;-57
2022/01/31 13:48:08;;;;;;;21.38;5.70;;;;;;;;;;5112876;28;20023;-56
2022/01/31 13:50:44;;;;;;;24.17;5.25;;;;;;;;;;5112917;28;20363;-57
2022/01/31 13:53:19;;;;;;;27.55;5.57;;;;;;;;;;5112909;28;20104;-58
2022/01/31 13:55:47;;;;;;;17.08;4.63;;;;;;;;;;5112381;28;20044;-57
2022/01/31 13:58:22;;;;;;;19.17;5.13;;;;;;;;;;5112898;28;20134;-58
2022/01/31 14:00:48;;;;;;;18.55;5.05;;;;;;;;;;5112439;28;20465;-58
2022/01/31 14:03:24;;;;;;;21.55;5.35;;;;;;;;;;5112421;28;20463;-60
2022/01/31 14:05:52;;;;;;;20.13;4.85;;;;;;;;;;5112796;28;20019;-59
2022/01/31 14:08:23;;;;;;;25.67;6.05;;;;;;;;;;5112506;28;20024;-58
2022/01/31 14:10:48;;;;;;;17.02;4.68;;;;;;;;;;5112458;28;20059;-59
2022/01/31 14:13:16;;;;;;;21.83;5.10;;;;;;;;;;5112664;28;20051;-60
2022/01/31 14:15:47;;;;;;;18.20;5.00;;;;;;;;;;5112391;28;20539;-58
2022/01/31 14:18:17;;;;;;;20.65;5.43;;;;;;;;;;5127282;28;20519;-59
2022/01/31 14:20:44;;;;;;;15.43;4.68;;;;;;;;;;5130816;28;20072;-57
2022/01/31 14:23:10;;;;;;;16.52;4.95;;;;;;;;;;5115811;28;20473;-56
2022/01/31 14:25:44;;;;;;;19.85;5.43;;;;;;;;;;5130170;28;20027;-57
2022/01/31 14:28:10;;;;;;;16.40;4.65;;;;;;;;;;5123135;28;20015;-55
2022/01/31 14:30:44;;;;;;;16.98;4.68;;;;;;;;;;5111902;28;20479;-55
2022/01/31 14:33:11;;;;;;;19.08;4.95;;;;;;;;;;5112579;28;20024;-56
2022/01/31 14:35:37;;;;;;;16.90;5.05;;;;;;;;;;5112163;28;20059;-57
2022/01/31 14:38:13;;;;;;;18.08;4.85;;;;;;;;;;5094152;28;20016;-57
2022/01/31 14:48:57;;;;;;;15.25;4.50;;;;;;;;;;5112404;28;20076;-54
2022/01/31 14:51:27;;;;;;;18.73;5.25;;;;;;;;;;5112067;28;20032;-57
2022/01/31 14:53:54;;;;;;;15.20;4.32;;;;;;;;;;5111805;28;20098;-55
2022/01/31 14:56:20;;;;;;;19.00;4.63;;;;;;;;;;5112033;28;20043;-56
2022/01/31 14:58:46;;;;;;;20.58;4.68;;;;;;;;;;5096157;28;20028;-56
2022/01/31 15:01:12;;;;;;;18.02;4.35;;;;;;;;;;5116014;28;20716;-56
2022/01/31 15:03:38;;;;;;;13.57;4.30;;;;;;;;;;5116214;28;20111;-55
2022/01/31 15:06:04;;;;;;;21.40;4.82;;;;;;;;;;5115988;28;20023;-54
2022/01/31 15:08:30;;;;;;;20.55;5.13;;;;;;;;;;5115897;28;20466;-56
2022/01/31 15:10:56;;;;;;;16.67;4.32;;;;;;;;;;5115305;28;20059;-59
2022/01/31 15:13:23;;;;;;;15.52;4.20;;;;;;;;;;5115652;28;20019;-60
2022/01/31 15:15:52;;;;;;;18.73;4.35;;;;;;;;;;5123401;27;20044;-57
2022/01/31 15:18:19;;;;;;;15.23;4.47;;;;;;;;;;5131320;27;20049;-55
2022/01/31 15:20:46;;;;;;;15.45;4.03;;;;;;;;;;5118264;27;20031;-58
2022/01/31 15:23:13;;;;;;;14.95;4.07;;;;;;;;;;5136436;27;20103;-55